Cheyenne Regional Jerry Olson Field
KCYS : now visible

Airfield :











YOU CAN JOIN US ON...

 
LOGIN :

Register | Disclaimer

   EN    FR    IT 

 









Legend :    VFR   Marginal VFR   IFR   Intensive IFR   Very Intensive IFR
Visi :
Ceiling :
>= 8 km
>= 3000ft
5 to 8 km
1000 to 3000 ft
1500m to 5 km
500 to 1000 ft
800 to 1500m
200 to 500 ft
< 800m
< 200 ft
Symbols :   Thunderstorms  Fog  Heavy snow  Heavy precipitations  Wind > 20 kt






- Airport Elevation : 6159 ft
- IATA code : CYS


KCYS - Cheyenne Regional Jerry Olson Field

CURRENT METAR :
  • 220053Z 02009G16KT 10SM CLR 06/M04 A2989 RMK AO2 PK WND 27028/0018 SLP117 T00611039

EXPIRED METARs :
  • 212353Z 29013G21KT 10SM FEW120 07/M04 A2986 RMK AO2 PK WND 30028/2342 SLP098 60000 T00721044 10117 20067 51010
  • 212253Z 27012G20KT 10SM BKN060 OVC070 07/M03 A2985 RMK AO2 PK WND 28036/2234 SLP089 T00721033
  • 212153Z 28013G21KT 10SM BKN055 OVC070 08/M04 A2985 RMK AO2 RAE30 SLP085 P0000 T00781039
  • 212053Z 06006G14KT 10SM -RA BKN050 OVC060 09/M03 A2983 RMK AO2 RAB48 SLP073 P0000 60000 T00891028 56018
  • 211953Z 09009KT 10SM SCT065 BKN090 11/M03 A2983 RMK AO2 SLP074 T01061028

TAF KCYS
Valid from the 22 at 00:00 until the 23 at 00:00 UTC


212324Z 2200/2224 29012G20KT P6SM VCSH BKN040 OVC070
FM220100 34010KT P6SM VCSH BKN050 OVC070
FM220500 33012KT 5SM -SHSN SCT025 OVC040
FM220800 32009KT P6SM VCSH BKN050 OVC080
FM221800 31012G18KT P6SM OVC090
KZDV FIR / North America



MET'MAP, your aeronautical weather chart ! - Copyright ORBIFLY December 2007 - Disclaimer

ORBIFLY MET'MAP TEAM :

Programming & Development : Alexandra Zaïnal
Original concept : Baudouin d'Aumeries
Technical & hardware support : Manuel Goepfert
Assistance : Marc-Olivier Méhu




SOURCES & CREDITS :

   NOAA       Earth
Advisory